Hovedside
METAR-TAF:

METAR-TAF

Lufthavner :

Namsos lufthavn

Namsos, Norge

breddegrad: 64-28N, lengdegrad: 011-35E, høyde over havet: 0 m

Gjeldene værobservasjon

Denne rapporten ble laget for 33 minutter siden, klokken 04:20 UTC
Vind 5 kt fra Nordøst, skiftende mellom Nord-nordøst og Øst
Temperatur 3°C
Luftfuktighet 100%
Trykk 1015 hPa
Sikt 10 km eller mer
Få skyer i en høyde av 3200 ft
Spredte skyer i en høyde av 6200 ft

METAR: ENNM 160420Z 05005KT 020V080 9999 FEW032 SCT062 03/03 Q1015

Tid: 06:53 (04:53 UTC)


TAF: fraværende

Værobservasjoner og værvarsel for over 4000 flyplasser (METAR- og TAF-rapporter).

Tilgjengelige stasjoner er representert av de røde og gule prikkene på kartet.

Hold musepekeren over prikken for å se navnet på stasjonen.

Klikk så for å se værobservasjoner og -varsler.

For å forandre kartet kan du klikke på den grønne knappen med svart kryss for å zoome inn, på den grønne knappen med strek for å zoome ut, eller på de grønne pilene for å se tilstøtende kart.


METAR-TAF: